Mount Rushmore Natl Memorial, South Dakota
Current Conditions -  °F | °C
As of 7:53 AM on Thursday 23 Oct 2014 (Local Time) from KCUT Reporting Station
Clear Clear  
Wind Chill: 37°   Ceiling: Unl
Heat Index: 37°   Visibility: 10mi
Dew Point: 18°   Wind: 3mph
Humidity: 46%   Direction: 190°S
Pressure: 30.04"   Gusts: NA
Location:  43.88°N, 103.45°W
Report Text: KCUT 231353Z AUTO 19003KT 10SM CLR 03/M08 A3004 RMK AO2 SLP171 T00281078
Loading
Personal Weather Stations






























Interactive Weather Map
Tropical Storm Tracking
New forecast layout! Learn more

10-Day Weather Forecast

Advertisements
Track Severe Weather on mobile